aviador You're here:

KFLP Decoded Metar

FLIPPIN (AWOS) in AR, USA
Report Time2018-06-23 11:56:00
UTC Time2018-06-23 12:10:13
Flight Rules vfr VFR
Wind360° at 06 kt
W.Decomp.*RWY 04: 4.4 kt HW 4.1 kt LCW
Visibility9999 m
Phenomena:Light Rain
Clouds:Overcast 095 Hf
Expected CloudBase > 400 ft AGL from Temp-Dew spread
Ceiling9,500 ft
Temp19°C (ISA +5)
Dew Point18°C (94% RH)
QNH1010 hPa
Density Alt1,732 ft
Elevation719 ft
Report Wrong Elevation
Raw Report
KFLP 231156Z AUTO 36006KT 10SM -RA OVC095 19/18 A2983 RMK AO2
RAB1059 SLP094 6//// 7//// T01890183 10206 20183 51015=

Extra information for KFLP:More info

Metar Taf Metar & Taf Last 4 Metars F.Rules Stats Wind Profile Meteogram Temp Stats Airport Information Weather charts Add Link Nearby VenuesMetar ALERT Operation Metar Decoded Social comments

AIRNAV info for KFLP